createdAt,value
2017-01-14T00:00:55.264Z,18.63
2017-01-14T00:02:06.006Z,18.74
2017-01-14T00:03:16.754Z,18.67
2017-01-14T00:04:27.496Z,18.71
2017-01-14T00:05:37.835Z,18.66
2017-01-14T00:06:48.566Z,18.7
2017-01-14T00:07:58.507Z,18.7
2017-01-14T00:09:08.843Z,18.74
2017-01-14T00:10:19.589Z,18.71
2017-01-14T00:11:29.909Z,18.7
2017-01-14T00:12:40.255Z,18.71
2017-01-14T00:13:50.581Z,18.76
2017-01-14T00:15:01.375Z,18.7
2017-01-14T00:16:12.111Z,18.68
2017-01-14T00:17:22.869Z,18.68
2017-01-14T00:18:33.208Z,18.71
2017-01-14T00:19:43.531Z,18.67
2017-01-14T00:20:53.871Z,18.64
2017-01-14T00:22:03.803Z,18.7
2017-01-14T00:23:14.530Z,18.74
2017-01-14T00:24:24.082Z,18.71
2017-01-14T00:25:34.802Z,18.63
2017-01-14T00:26:45.579Z,18.67
2017-01-14T00:27:55.902Z,18.6
2017-01-14T00:29:06.638Z,18.67
2017-01-14T00:30:17.361Z,18.61
2017-01-14T00:31:28.094Z,18.64
2017-01-14T00:32:38.565Z,18.67
2017-01-14T00:33:49.304Z,18.63
2017-01-14T00:34:59.736Z,18.57
2017-01-14T00:36:10.086Z,18.68
2017-01-14T00:37:20.022Z,18.76
2017-01-14T00:38:29.967Z,18.7
2017-01-14T00:39:40.687Z,18.67
2017-01-14T00:40:51.422Z,18.63
2017-01-14T00:42:02.162Z,18.57
2017-01-14T00:43:12.504Z,18.68
2017-01-14T00:44:23.228Z,18.7
2017-01-14T00:45:33.560Z,18.64
2017-01-14T00:46:43.899Z,18.66
2017-01-14T00:47:54.638Z,18.68
2017-01-14T00:49:04.171Z,18.66
2017-01-14T00:50:14.510Z,18.55
2017-01-14T00:51:24.872Z,18.57
2017-01-14T00:52:35.191Z,18.67
2017-01-14T00:53:45.521Z,18.6
2017-01-14T00:54:56.276Z,18.58
2017-01-14T00:56:07.000Z,18.61
2017-01-14T00:57:16.945Z,18.58
2017-01-14T00:58:27.268Z,18.55
2017-01-14T00:59:37.716Z,18.57
2017-01-14T01:00:48.450Z,18.6
2017-01-14T01:01:58.814Z,18.58
2017-01-14T01:03:09.143Z,18.55
2017-01-14T01:04:19.866Z,18.61
2017-01-14T01:05:30.591Z,18.55
2017-01-14T01:06:40.949Z,18.63
2017-01-14T01:07:51.297Z,18.63
2017-01-14T01:09:01.643Z,18.63
2017-01-14T01:10:12.359Z,18.64
2017-01-14T01:11:23.105Z,18.61
2017-01-14T01:12:33.457Z,18.63
2017-01-14T01:13:44.375Z,18.55
2017-01-14T01:14:55.133Z,18.58
2017-01-14T01:16:05.457Z,18.58
2017-01-14T01:17:15.386Z,18.51
2017-01-14T01:18:25.713Z,18.58
2017-01-14T01:19:36.055Z,18.6
2017-01-14T01:20:45.990Z,18.55
2017-01-14T01:21:56.336Z,18.57
2017-01-14T01:23:07.066Z,18.58
2017-01-14T01:24:17.415Z,18.61
2017-01-14T01:25:27.792Z,18.58
2017-01-14T01:26:38.119Z,18.63
2017-01-14T01:27:48.455Z,18.71
2017-01-14T01:28:58.809Z,18.71
2017-01-14T01:30:09.127Z,18.67
2017-01-14T01:31:19.833Z,18.7
2017-01-14T01:32:30.550Z,18.64
2017-01-14T01:33:40.899Z,18.57
2017-01-14T01:34:51.623Z,18.64
2017-01-14T01:36:02.397Z,18.55
2017-01-14T01:37:12.727Z,18.67
2017-01-14T01:38:23.475Z,18.63
2017-01-14T01:39:34.208Z,18.55
2017-01-14T01:40:44.158Z,18.68
2017-01-14T01:41:54.879Z,18.55
2017-01-14T01:43:05.200Z,18.63
2017-01-14T01:44:15.165Z,18.6
2017-01-14T01:45:25.494Z,18.67
2017-01-14T01:46:36.214Z,18.6
2017-01-14T01:47:46.550Z,18.57
2017-01-14T01:48:56.922Z,18.53
2017-01-14T01:50:07.634Z,18.46
2017-01-14T01:51:17.970Z,18.53
2017-01-14T01:52:27.520Z,18.6
2017-01-14T01:53:36.771Z,18.55
2017-01-14T01:54:47.116Z,18.61
2017-01-14T01:55:57.448Z,18.57
2017-01-14T01:57:07.993Z,18.58
2017-01-14T01:58:17.532Z,18.6
2017-01-14T01:59:27.845Z,18.57
2017-01-14T02:00:38.579Z,18.6
2017-01-14T02:01:49.311Z,18.53
2017-01-14T02:03:00.108Z,18.6
2017-01-14T02:04:10.889Z,18.61
2017-01-14T02:05:21.221Z,18.57
2017-01-14T02:06:31.935Z,18.63
2017-01-14T02:07:42.262Z,18.6
2017-01-14T02:08:52.218Z,18.58
2017-01-14T02:10:02.936Z,18.58
2017-01-14T02:11:13.270Z,18.52
2017-01-14T02:12:24.006Z,18.57
2017-01-14T02:13:34.335Z,18.58
2017-01-14T02:14:44.671Z,18.58
2017-01-14T02:15:54.601Z,18.52
2017-01-14T02:17:05.325Z,18.49
2017-01-14T02:18:16.047Z,18.53
2017-01-14T02:19:26.009Z,18.53
2017-01-14T02:20:36.729Z,18.46
2017-01-14T02:21:47.062Z,18.48
2017-01-14T02:22:57.378Z,18.48
2017-01-14T02:24:07.743Z,18.52
2017-01-14T02:25:17.686Z,18.46
2017-01-14T02:26:28.038Z,18.48
2017-01-14T02:27:38.371Z,18.46
2017-01-14T02:28:49.093Z,18.51
2017-01-14T02:29:59.436Z,18.51
2017-01-14T02:31:10.172Z,18.53
2017-01-14T02:32:20.898Z,18.58
2017-01-14T02:33:31.224Z,18.61
2017-01-14T02:34:41.548Z,18.6
2017-01-14T02:35:51.884Z,18.57
2017-01-14T02:37:02.217Z,18.53
2017-01-14T02:38:12.546Z,18.51
2017-01-14T02:39:23.266Z,18.52
2017-01-14T02:40:33.189Z,18.52
2017-01-14T02:41:43.916Z,18.57
2017-01-14T02:42:54.236Z,18.57
2017-01-14T02:44:04.966Z,18.58
2017-01-14T02:45:15.689Z,18.52
2017-01-14T02:46:26.024Z,18.57
2017-01-14T02:47:35.970Z,18.57
2017-01-14T02:48:46.293Z,18.57
2017-01-14T02:49:56.325Z,18.51
2017-01-14T02:51:07.042Z,18.57
2017-01-14T02:52:17.779Z,18.55
2017-01-14T02:53:28.117Z,18.48
2017-01-14T02:54:38.859Z,18.55
2017-01-14T02:55:49.570Z,18.58
2017-01-14T02:56:59.116Z,18.52
2017-01-14T02:58:09.442Z,18.51
2017-01-14T02:59:19.766Z,18.46
2017-01-14T03:00:29.727Z,18.49
2017-01-14T03:01:40.546Z,18.51
2017-01-14T03:02:50.904Z,18.52
2017-01-14T03:04:01.627Z,18.55
2017-01-14T03:05:12.447Z,18.49
2017-01-14T03:06:22.773Z,18.46
2017-01-14T03:07:33.507Z,18.48
2017-01-14T03:08:43.035Z,18.48
2017-01-14T03:09:53.365Z,18.51
2017-01-14T03:11:03.295Z,18.52
2017-01-14T03:12:14.012Z,18.57
2017-01-14T03:13:24.004Z,18.58
2017-01-14T03:14:34.726Z,18.52
2017-01-14T03:15:45.061Z,18.51
2017-01-14T03:16:55.788Z,18.53
2017-01-14T03:18:06.111Z,18.57
2017-01-14T03:19:16.440Z,18.46
2017-01-14T03:20:27.174Z,18.49
2017-01-14T03:21:37.890Z,18.52
2017-01-14T03:22:48.222Z,18.51
2017-01-14T03:23:58.560Z,18.57
2017-01-14T03:25:08.927Z,18.53
2017-01-14T03:26:19.646Z,18.52
2017-01-14T03:27:30.386Z,18.49
2017-01-14T03:28:40.725Z,18.55
2017-01-14T03:29:51.469Z,18.51
2017-01-14T03:31:02.184Z,18.48
2017-01-14T03:32:12.965Z,18.49
2017-01-14T03:33:23.679Z,18.53
2017-01-14T03:34:34.009Z,18.53
2017-01-14T03:35:43.944Z,18.58
2017-01-14T03:36:54.658Z,18.53
2017-01-14T03:38:04.978Z,18.58
2017-01-14T03:39:15.704Z,18.58
2017-01-14T03:40:26.450Z,18.55
2017-01-14T03:41:36.786Z,18.55
2017-01-14T03:42:47.523Z,18.53
2017-01-14T03:43:57.842Z,18.55
2017-01-14T03:45:08.552Z,18.57
2017-01-14T03:46:18.875Z,18.49
2017-01-14T03:47:28.997Z,18.49
2017-01-14T03:48:38.549Z,18.42
2017-01-14T03:49:49.266Z,18.45
2017-01-14T03:50:59.688Z,18.52
2017-01-14T03:52:09.621Z,18.49
2017-01-14T03:53:20.345Z,18.52
2017-01-14T03:54:31.065Z,18.51
2017-01-14T03:55:41.391Z,18.58
2017-01-14T03:56:51.762Z,18.55
2017-01-14T03:58:02.510Z,18.51
2017-01-14T03:59:13.231Z,18.49
2017-01-14T04:00:23.951Z,18.58
2017-01-14T04:01:33.883Z,18.57
2017-01-14T04:02:44.680Z,18.55
2017-01-14T04:03:55.433Z,18.6
2017-01-14T04:05:05.007Z,18.6
2017-01-14T04:06:15.720Z,18.6
2017-01-14T04:07:26.452Z,18.53
2017-01-14T04:08:36.770Z,18.45
2017-01-14T04:09:47.102Z,18.48
2017-01-14T04:10:57.820Z,18.49
2017-01-14T04:12:08.535Z,18.45
2017-01-14T04:13:18.479Z,18.46
2017-01-14T04:14:29.192Z,18.45
2017-01-14T04:15:38.722Z,18.49
2017-01-14T04:16:48.679Z,18.46
2017-01-14T04:17:59.407Z,18.53
2017-01-14T04:19:09.725Z,18.46
2017-01-14T04:20:20.050Z,18.46
2017-01-14T04:21:30.384Z,18.58
2017-01-14T04:22:41.109Z,18.53
2017-01-14T04:23:51.439Z,18.57
2017-01-14T04:25:01.765Z,18.53
2017-01-14T04:26:12.488Z,18.57
2017-01-14T04:27:22.812Z,18.57
2017-01-14T04:28:32.348Z,18.48
2017-01-14T04:29:42.664Z,18.45
2017-01-14T04:30:53.375Z,18.45
2017-01-14T04:32:04.094Z,18.53
2017-01-14T04:33:14.802Z,18.46
2017-01-14T04:34:25.557Z,18.48
2017-01-14T04:35:36.328Z,18.48
2017-01-14T04:36:46.662Z,18.53
2017-01-14T04:37:57.192Z,18.61
2017-01-14T04:39:07.513Z,18.58
2017-01-14T04:40:18.226Z,18.57
2017-01-14T04:41:28.556Z,18.53
2017-01-14T04:42:39.279Z,18.52
2017-01-14T04:43:49.062Z,18.52
2017-01-14T04:44:59.778Z,18.55
2017-01-14T04:46:10.105Z,18.48
2017-01-14T04:47:20.831Z,18.46
2017-01-14T04:48:30.764Z,18.46
2017-01-14T04:49:40.684Z,18.61
2017-01-14T04:50:51.419Z,18.52
2017-01-14T04:52:01.740Z,18.6
2017-01-14T04:53:11.689Z,18.52
2017-01-14T04:54:22.015Z,18.61
2017-01-14T04:55:31.557Z,18.46
2017-01-14T04:56:42.274Z,18.46
2017-01-14T04:57:53.011Z,18.48
2017-01-14T04:59:03.346Z,18.48
2017-01-14T05:00:14.070Z,18.49
2017-01-14T05:01:24.409Z,18.49
2017-01-14T05:02:34.742Z,18.46
2017-01-14T05:03:45.081Z,18.49
2017-01-14T05:04:55.794Z,18.49
2017-01-14T05:06:06.118Z,18.48
2017-01-14T05:07:16.838Z,18.46
2017-01-14T05:08:26.768Z,18.55
2017-01-14T05:09:37.481Z,18.53
2017-01-14T05:10:47.417Z,18.61
2017-01-14T05:11:58.136Z,18.55
2017-01-14T05:13:08.860Z,18.61
2017-01-14T05:14:19.581Z,18.6
2017-01-14T05:15:30.297Z,18.45
2017-01-14T05:16:41.014Z,18.49
2017-01-14T05:17:51.734Z,18.46
2017-01-14T05:19:01.664Z,18.51
2017-01-14T05:20:11.987Z,18.57
2017-01-14T05:21:22.701Z,18.48
2017-01-14T05:22:33.414Z,18.49
2017-01-14T05:23:44.134Z,18.46
2017-01-14T05:24:54.858Z,18.49
2017-01-14T05:26:05.196Z,18.43
2017-01-14T05:27:15.127Z,18.52
2017-01-14T05:28:25.452Z,18.46
2017-01-14T05:29:36.185Z,18.52
2017-01-14T05:30:46.905Z,18.48
2017-01-14T05:31:57.228Z,18.49
2017-01-14T05:33:07.155Z,18.48
2017-01-14T05:34:17.872Z,18.45
2017-01-14T05:35:28.195Z,18.51
2017-01-14T05:36:38.937Z,18.48
2017-01-14T05:37:49.661Z,18.52
2017-01-14T05:38:59.997Z,18.53
2017-01-14T05:40:10.716Z,18.57
2017-01-14T05:41:21.043Z,18.58
2017-01-14T05:42:31.088Z,18.48
2017-01-14T05:43:41.808Z,18.51
2017-01-14T05:44:52.525Z,18.49
2017-01-14T05:46:02.848Z,18.57
2017-01-14T05:47:13.177Z,18.53
2017-01-14T05:48:23.510Z,18.57
2017-01-14T05:49:34.233Z,18.52
2017-01-14T05:50:44.159Z,18.51
2017-01-14T05:51:54.482Z,18.46
2017-01-14T05:53:04.834Z,18.46
2017-01-14T05:54:15.548Z,18.51
2017-01-14T05:55:26.095Z,18.48
2017-01-14T05:56:36.818Z,18.53
2017-01-14T05:57:47.554Z,18.49
2017-01-14T05:58:57.091Z,18.53
2017-01-14T06:00:07.413Z,18.57
2017-01-14T06:01:18.134Z,18.52
2017-01-14T06:02:28.861Z,18.57
2017-01-14T06:03:39.190Z,18.45
2017-01-14T06:04:49.529Z,18.48
2017-01-14T06:05:59.869Z,18.45
2017-01-14T06:07:10.588Z,18.52
2017-01-14T06:08:21.366Z,18.48
2017-01-14T06:09:32.083Z,18.45
2017-01-14T06:10:42.777Z,18.45
2017-01-14T06:11:53.109Z,18.43
2017-01-14T06:13:03.855Z,18.43
2017-01-14T06:14:14.579Z,18.53
2017-01-14T06:15:25.304Z,18.46
2017-01-14T06:16:35.634Z,18.53
2017-01-14T06:17:46.363Z,18.57
2017-01-14T06:18:57.090Z,18.52
2017-01-14T06:20:07.810Z,18.58
2017-01-14T06:21:18.143Z,18.53
2017-01-14T06:22:28.521Z,18.46
2017-01-14T06:23:38.876Z,18.46
2017-01-14T06:24:49.611Z,18.42
2017-01-14T06:25:59.944Z,18.48
2017-01-14T06:27:10.271Z,18.48
2017-01-14T06:28:20.987Z,18.48
2017-01-14T06:29:31.012Z,18.46
2017-01-14T06:30:41.739Z,18.48
2017-01-14T06:31:51.675Z,18.45
2017-01-14T06:33:02.392Z,18.48
2017-01-14T06:34:13.115Z,18.51
2017-01-14T06:35:23.835Z,18.46
2017-01-14T06:36:34.556Z,18.48
2017-01-14T06:37:45.275Z,18.41
2017-01-14T06:38:55.608Z,18.51
2017-01-14T06:40:05.937Z,18.46
2017-01-14T06:41:16.670Z,18.48
2017-01-14T06:42:27.396Z,18.51
2017-01-14T06:43:37.332Z,18.48
2017-01-14T06:44:47.655Z,18.49
2017-01-14T06:45:57.990Z,18.53
2017-01-14T06:47:08.737Z,18.58
2017-01-14T06:48:18.660Z,18.48
2017-01-14T06:49:28.994Z,18.55
2017-01-14T06:50:39.342Z,18.45
2017-01-14T06:51:50.074Z,18.49
2017-01-14T06:53:00.401Z,18.45
2017-01-14T06:54:11.112Z,18.46
2017-01-14T06:55:21.886Z,18.46
2017-01-14T06:56:31.815Z,18.45
2017-01-14T06:57:41.746Z,18.45
2017-01-14T06:58:52.065Z,18.48
2017-01-14T07:00:02.395Z,18.49
2017-01-14T07:01:12.721Z,18.45
2017-01-14T07:02:22.263Z,18.49
2017-01-14T07:03:32.590Z,18.45
2017-01-14T07:04:43.332Z,18.48
2017-01-14T07:05:54.049Z,18.45
2017-01-14T07:07:04.785Z,18.43
2017-01-14T07:08:15.115Z,18.45
2017-01-14T07:09:25.450Z,18.36
2017-01-14T07:10:35.003Z,18.45
2017-01-14T07:11:45.724Z,18.52
2017-01-14T07:12:56.449Z,18.49
2017-01-14T07:14:06.786Z,18.43
2017-01-14T07:15:17.108Z,18.42
2017-01-14T07:16:27.445Z,18.34
2017-01-14T07:17:37.803Z,18.34
2017-01-14T07:18:48.116Z,18.48
2017-01-14T07:19:58.842Z,18.43
2017-01-14T07:21:09.572Z,18.43
2017-01-14T07:22:20.313Z,18.43
2017-01-14T07:23:30.641Z,18.49
2017-01-14T07:24:41.374Z,18.45
2017-01-14T07:25:52.125Z,18.53
2017-01-14T07:27:02.846Z,18.48
2017-01-14T07:28:13.614Z,18.49
2017-01-14T07:29:23.550Z,18.51
2017-01-14T07:30:34.273Z,18.45
2017-01-14T07:31:44.597Z,18.45
2017-01-14T07:32:55.320Z,18.49
2017-01-14T07:34:06.040Z,18.43
2017-01-14T07:35:16.366Z,18.46
2017-01-14T07:36:26.703Z,18.37
2017-01-14T07:37:36.639Z,18.43
2017-01-14T07:38:46.981Z,18.52
2017-01-14T07:39:57.320Z,18.42
2017-01-14T07:41:07.649Z,18.46
2017-01-14T07:42:18.373Z,18.43
2017-01-14T07:43:28.747Z,18.37
2017-01-14T07:44:38.687Z,18.46
2017-01-14T07:45:49.419Z,18.43
2017-01-14T07:46:59.480Z,18.48
2017-01-14T07:48:09.819Z,18.48
2017-01-14T07:49:20.157Z,18.51
2017-01-14T07:50:30.498Z,18.57
2017-01-14T07:51:41.243Z,18.49
2017-01-14T07:52:51.564Z,18.46
2017-01-14T07:54:02.290Z,18.51
2017-01-14T07:55:13.017Z,18.55
2017-01-14T07:56:23.749Z,18.43
2017-01-14T07:57:34.626Z,18.46
2017-01-14T07:58:45.346Z,18.46
2017-01-14T07:59:56.069Z,18.57
2017-01-14T08:01:06.393Z,18.53
2017-01-14T08:02:16.719Z,18.46
2017-01-14T08:03:27.036Z,18.51
2017-01-14T08:04:37.372Z,18.49
2017-01-14T08:05:47.706Z,18.48
2017-01-14T08:06:58.037Z,18.45
2017-01-14T08:08:08.773Z,18.41
2017-01-14T08:09:19.177Z,18.46
2017-01-14T08:10:29.891Z,18.49
2017-01-14T08:11:40.231Z,18.46
2017-01-14T08:12:50.159Z,18.43
2017-01-14T08:14:00.908Z,18.48
2017-01-14T08:15:11.634Z,18.48
2017-01-14T08:16:22.357Z,18.45
2017-01-14T08:17:32.684Z,18.45
2017-01-14T08:18:43.410Z,18.45
2017-01-14T08:19:53.345Z,18.37
2017-01-14T08:21:03.676Z,18.39
2017-01-14T08:22:14.020Z,18.49
2017-01-14T08:23:24.361Z,18.48
2017-01-14T08:24:34.703Z,18.42
2017-01-14T08:25:45.456Z,18.42
2017-01-14T08:26:56.169Z,18.43
2017-01-14T08:28:06.901Z,18.45
2017-01-14T08:29:17.219Z,18.45
2017-01-14T08:30:27.949Z,18.45
2017-01-14T08:31:37.888Z,18.46
2017-01-14T08:32:48.220Z,18.49
2017-01-14T08:33:58.960Z,18.46
2017-01-14T08:35:09.683Z,18.49
2017-01-14T08:36:20.412Z,18.52
2017-01-14T08:37:31.155Z,18.49
2017-01-14T08:38:41.494Z,18.49
2017-01-14T08:39:52.214Z,18.46
2017-01-14T08:41:02.537Z,18.49
2017-01-14T08:42:13.271Z,18.49
2017-01-14T08:43:23.987Z,18.51
2017-01-14T08:44:34.712Z,18.51
2017-01-14T08:45:45.048Z,18.46
2017-01-14T08:46:55.030Z,18.49
2017-01-14T08:48:05.747Z,18.51
2017-01-14T08:49:16.480Z,18.45
2017-01-14T08:50:26.441Z,18.43
2017-01-14T08:51:37.165Z,18.43
2017-01-14T08:52:47.491Z,18.46
2017-01-14T08:53:58.227Z,18.46
2017-01-14T08:55:08.592Z,18.48
2017-01-14T08:56:19.335Z,18.41
2017-01-14T08:57:29.693Z,18.45
2017-01-14T08:58:40.019Z,18.49
2017-01-14T08:59:50.733Z,18.43
2017-01-14T09:01:01.492Z,18.37
2017-01-14T09:02:12.240Z,18.39
2017-01-14T09:03:21.773Z,18.45
2017-01-14T09:04:32.201Z,18.46
2017-01-14T09:05:42.950Z,18.51
2017-01-14T09:06:53.283Z,18.42
2017-01-14T09:08:03.649Z,18.53
2017-01-14T09:09:13.997Z,18.49
2017-01-14T09:10:23.545Z,18.51
2017-01-14T09:11:33.878Z,18.51
2017-01-14T09:12:44.597Z,18.52
2017-01-14T09:13:54.120Z,18.53
2017-01-14T09:15:04.862Z,18.51
2017-01-14T09:16:15.176Z,18.49
2017-01-14T09:17:25.903Z,18.53
2017-01-14T09:18:36.229Z,18.58
2017-01-14T09:19:45.771Z,18.57
2017-01-14T09:20:56.111Z,18.51
2017-01-14T09:22:06.062Z,18.49
2017-01-14T09:23:16.779Z,18.51
2017-01-14T09:24:27.508Z,18.57
2017-01-14T09:25:37.857Z,18.45
2017-01-14T09:26:47.825Z,18.51
2017-01-14T09:27:58.263Z,18.46
2017-01-14T09:29:08.987Z,18.48
2017-01-14T09:30:19.377Z,18.45
2017-01-14T09:31:30.164Z,18.45
2017-01-14T09:32:40.888Z,18.45
2017-01-14T09:33:51.217Z,18.42
2017-01-14T09:35:01.560Z,18.42
2017-01-14T09:36:12.305Z,18.46
2017-01-14T09:37:23.041Z,18.34
2017-01-14T09:38:33.779Z,18.55
2017-01-14T09:39:44.526Z,18.48
2017-01-14T09:40:54.455Z,18.46
2017-01-14T09:42:04.394Z,18.41
2017-01-14T09:43:15.108Z,18.46
2017-01-14T09:44:25.831Z,18.45
2017-01-14T09:45:36.170Z,18.52
2017-01-14T09:46:46.884Z,18.49
2017-01-14T09:47:57.607Z,18.46
2017-01-14T09:49:07.927Z,18.57
2017-01-14T09:50:18.254Z,18.43
2017-01-14T09:51:28.580Z,18.53
2017-01-14T09:52:38.904Z,18.46
2017-01-14T09:53:48.839Z,18.46
2017-01-14T09:54:58.762Z,18.53
2017-01-14T09:56:08.708Z,18.51
2017-01-14T09:57:19.042Z,18.6
2017-01-14T09:58:29.777Z,18.58
2017-01-14T09:59:39.710Z,18.58
2017-01-14T10:00:50.042Z,18.53
2017-01-14T10:02:00.388Z,18.55
2017-01-14T10:03:11.108Z,18.48
2017-01-14T10:04:21.438Z,18.53
2017-01-14T10:05:31.790Z,18.55
2017-01-14T10:06:42.532Z,18.57
2017-01-14T10:07:52.875Z,18.52
2017-01-14T10:09:03.601Z,18.45
2017-01-14T10:10:14.331Z,18.48
2017-01-14T10:11:24.661Z,18.49
2017-01-14T10:12:35.003Z,18.49
2017-01-14T10:13:45.749Z,18.45
2017-01-14T10:14:56.465Z,18.49
2017-01-14T10:16:07.253Z,18.42
2017-01-14T10:17:17.608Z,18.49
2017-01-14T10:18:28.345Z,18.41
2017-01-14T10:19:38.301Z,18.36
2017-01-14T10:20:49.071Z,18.46
2017-01-14T10:21:59.819Z,18.53
2017-01-14T10:23:10.143Z,18.51
2017-01-14T10:24:20.866Z,18.42
2017-01-14T10:25:31.208Z,18.48
2017-01-14T10:26:41.935Z,18.48
2017-01-14T10:27:52.698Z,18.45
2017-01-14T10:29:02.643Z,18.52
2017-01-14T10:30:13.375Z,18.57
2017-01-14T10:31:23.704Z,18.53
2017-01-14T10:32:34.444Z,18.52
2017-01-14T10:33:44.802Z,18.46
2017-01-14T10:34:55.528Z,18.51
2017-01-14T10:36:05.932Z,18.46
2017-01-14T10:37:16.317Z,18.45
2017-01-14T10:38:26.261Z,18.52
2017-01-14T10:39:35.810Z,18.52
2017-01-14T10:40:46.557Z,18.48
2017-01-14T10:41:57.449Z,18.51
2017-01-14T10:43:07.814Z,18.48
2017-01-14T10:44:18.146Z,18.43
2017-01-14T10:45:28.476Z,18.42
2017-01-14T10:46:38.812Z,18.55
2017-01-14T10:47:49.556Z,18.51
2017-01-14T10:49:00.288Z,18.42
2017-01-14T10:50:11.008Z,18.45
2017-01-14T10:51:21.366Z,18.45
2017-01-14T10:52:32.093Z,18.42
2017-01-14T10:53:42.422Z,18.42
2017-01-14T10:54:53.152Z,18.46
2017-01-14T10:56:03.111Z,18.45
2017-01-14T10:57:13.847Z,18.48
2017-01-14T10:58:24.563Z,18.46
2017-01-14T10:59:35.271Z,18.45
2017-01-14T11:00:46.000Z,18.45
2017-01-14T11:01:55.940Z,18.41
2017-01-14T11:03:06.682Z,18.42
2017-01-14T11:04:17.008Z,18.55
2017-01-14T11:05:27.345Z,18.48
2017-01-14T11:06:36.890Z,18.46
2017-01-14T11:07:47.211Z,18.49
2017-01-14T11:08:57.149Z,18.48
2017-01-14T11:10:07.888Z,18.49
2017-01-14T11:11:18.223Z,18.53
2017-01-14T11:12:28.956Z,18.53
2017-01-14T11:13:39.690Z,18.48
2017-01-14T11:14:50.029Z,18.52
2017-01-14T11:16:00.392Z,18.53
2017-01-14T11:17:11.118Z,18.49
2017-01-14T11:18:21.858Z,18.49
2017-01-14T11:19:31.805Z,18.6
2017-01-14T11:20:42.189Z,18.58
2017-01-14T11:21:52.915Z,18.45
2017-01-14T11:23:03.654Z,18.51
2017-01-14T11:24:13.994Z,18.53
2017-01-14T11:25:24.726Z,18.53
2017-01-14T11:26:35.491Z,18.57
2017-01-14T11:27:46.231Z,18.58
2017-01-14T11:28:56.960Z,18.58
2017-01-14T11:30:07.686Z,18.58
2017-01-14T11:31:17.635Z,18.51
2017-01-14T11:32:27.600Z,18.45
2017-01-14T11:33:38.365Z,18.46
2017-01-14T11:34:49.094Z,18.49
2017-01-14T11:35:59.873Z,18.55
2017-01-14T11:37:10.615Z,18.6
2017-01-14T11:38:20.956Z,18.52
2017-01-14T11:39:31.754Z,18.49
2017-01-14T11:40:42.103Z,18.52
2017-01-14T11:41:52.826Z,18.46
2017-01-14T11:43:03.172Z,18.46
2017-01-14T11:44:13.908Z,18.58
2017-01-14T11:45:24.660Z,18.52
2017-01-14T11:46:35.398Z,18.58
2017-01-14T11:47:45.741Z,18.61
2017-01-14T11:48:56.084Z,18.58
2017-01-14T11:50:06.810Z,18.57
2017-01-14T11:51:17.154Z,18.61
2017-01-14T11:52:27.486Z,18.52
2017-01-14T11:53:37.430Z,18.46
2017-01-14T11:54:48.160Z,18.55
2017-01-14T11:55:58.923Z,18.52
2017-01-14T11:57:09.642Z,18.52
2017-01-14T11:58:20.384Z,18.52
2017-01-14T11:59:29.953Z,18.51
2017-01-14T12:00:39.921Z,18.46
2017-01-14T12:01:49.879Z,18.45
2017-01-14T12:03:00.624Z,18.48
2017-01-14T12:04:11.373Z,18.58
2017-01-14T12:05:22.138Z,18.57
2017-01-14T12:06:32.493Z,18.55
2017-01-14T12:07:42.464Z,18.58
2017-01-14T12:08:52.410Z,18.58
2017-01-14T12:10:02.356Z,18.58
2017-01-14T12:11:12.713Z,18.57
2017-01-14T12:12:23.460Z,18.53
2017-01-14T12:13:33.475Z,18.52
2017-01-14T12:14:44.228Z,18.53
2017-01-14T12:15:54.586Z,18.57
2017-01-14T12:17:04.934Z,18.45
2017-01-14T12:18:15.274Z,18.48
2017-01-14T12:19:26.010Z,18.57
2017-01-14T12:20:36.353Z,18.55
2017-01-14T12:21:46.322Z,18.55
2017-01-14T12:22:57.050Z,18.53
2017-01-14T12:24:07.766Z,18.43
2017-01-14T12:25:18.101Z,18.57
2017-01-14T12:26:28.844Z,18.61
2017-01-14T12:27:39.179Z,18.58
2017-01-14T12:28:49.900Z,18.57
2017-01-14T12:30:00.246Z,18.61
2017-01-14T12:31:10.979Z,18.6
2017-01-14T12:32:20.912Z,18.55
2017-01-14T12:33:31.255Z,18.57
2017-01-14T12:34:41.733Z,18.58
2017-01-14T12:35:51.661Z,18.57
2017-01-14T12:37:02.464Z,18.63
2017-01-14T12:38:13.194Z,18.53
2017-01-14T12:39:23.559Z,18.52
2017-01-14T12:40:34.276Z,18.45
2017-01-14T12:41:44.608Z,18.55
2017-01-14T12:42:54.161Z,18.51
2017-01-14T12:44:04.900Z,18.46
2017-01-14T12:45:15.617Z,18.46
2017-01-14T12:46:26.356Z,18.52
2017-01-14T12:47:37.112Z,18.43
2017-01-14T12:48:47.444Z,18.34
2017-01-14T12:49:58.211Z,18.45
2017-01-14T12:51:08.526Z,18.37
2017-01-14T12:52:18.468Z,18.41
2017-01-14T12:53:28.772Z,18.34
2017-01-14T12:54:39.112Z,18.36
2017-01-14T12:55:48.238Z,18.41
2017-01-14T12:56:58.146Z,18.34
2017-01-14T12:58:07.288Z,18.39
2017-01-14T12:59:17.203Z,18.33
2017-01-14T13:00:26.723Z,18.36
2017-01-14T13:01:37.025Z,18.39
2017-01-14T13:02:47.338Z,18.45
2017-01-14T13:03:57.248Z,18.43
2017-01-14T13:05:07.949Z,18.46
2017-01-14T13:06:18.641Z,18.45
2017-01-14T13:07:28.964Z,18.42
2017-01-14T13:08:39.665Z,18.51
2017-01-14T13:09:49.166Z,18.43
2017-01-14T13:10:59.464Z,18.43
2017-01-14T13:12:09.771Z,18.42
2017-01-14T13:13:19.679Z,18.46
2017-01-14T13:14:29.984Z,18.49
2017-01-14T13:15:39.894Z,18.51
2017-01-14T13:16:49.801Z,18.51
2017-01-14T13:17:59.715Z,18.51
2017-01-14T13:19:09.222Z,18.46
2017-01-14T13:20:19.773Z,18.43
2017-01-14T13:21:29.695Z,18.45
2017-01-14T13:22:40.004Z,18.46
2017-01-14T13:23:50.304Z,18.48
2017-01-14T13:25:00.615Z,18.45
2017-01-14T13:26:11.328Z,18.43
2017-01-14T13:27:21.238Z,18.46
2017-01-14T13:28:30.748Z,18.46
2017-01-14T13:29:41.445Z,18.51
2017-01-14T13:30:51.376Z,18.45
2017-01-14T13:32:01.288Z,18.46
2017-01-14T13:33:11.594Z,18.48
2017-01-14T13:34:21.121Z,18.43
2017-01-14T13:35:31.434Z,18.46
2017-01-14T13:36:40.951Z,18.51
2017-01-14T13:37:51.267Z,18.48
2017-01-14T13:39:00.775Z,18.51
2017-01-14T13:40:10.670Z,18.45
2017-01-14T13:41:20.977Z,18.52
2017-01-14T13:42:31.286Z,18.49
2017-01-14T13:43:41.990Z,18.52
2017-01-14T13:44:51.513Z,18.48
2017-01-14T13:46:01.473Z,18.53
2017-01-14T13:47:10.992Z,18.58
2017-01-14T13:48:21.289Z,18.55
2017-01-14T13:49:31.997Z,18.55
2017-01-14T13:50:42.698Z,18.61
2017-01-14T13:51:53.004Z,18.53
2017-01-14T13:53:02.913Z,18.57
2017-01-14T13:54:13.208Z,18.61
2017-01-14T13:55:23.501Z,18.57
2017-01-14T13:56:33.415Z,18.67
2017-01-14T13:57:43.341Z,18.57
2017-01-14T13:58:53.660Z,18.58
2017-01-14T14:00:03.961Z,18.61
2017-01-14T14:01:13.875Z,18.45
2017-01-14T14:02:23.782Z,18.51
2017-01-14T14:03:34.096Z,18.57
2017-01-14T14:04:44.011Z,18.58
2017-01-14T14:05:54.715Z,18.57
2017-01-14T14:07:05.017Z,18.53
2017-01-14T14:08:15.313Z,18.55
2017-01-14T14:09:26.007Z,18.55
2017-01-14T14:10:36.322Z,18.58
2017-01-14T14:11:47.140Z,18.55
2017-01-14T14:12:57.465Z,18.58
2017-01-14T14:14:07.364Z,18.55
2017-01-14T14:15:18.066Z,18.55
2017-01-14T14:16:27.973Z,18.55
2017-01-14T14:17:38.283Z,18.6
2017-01-14T14:18:48.588Z,18.53
2017-01-14T14:19:58.498Z,18.57
2017-01-14T14:21:08.820Z,18.57
2017-01-14T14:22:19.115Z,18.55
2017-01-14T14:23:29.032Z,18.52
2017-01-14T14:24:39.342Z,18.57
2017-01-14T14:25:49.668Z,18.61
2017-01-14T14:26:59.575Z,18.57
2017-01-14T14:28:09.096Z,18.55
2017-01-14T14:29:19.795Z,18.55
2017-01-14T14:30:30.503Z,18.6
2017-01-14T14:31:40.807Z,18.63
2017-01-14T14:32:50.313Z,18.67
2017-01-14T14:34:00.621Z,18.68
2017-01-14T14:35:10.124Z,18.68
2017-01-14T14:36:20.020Z,18.63
2017-01-14T14:37:30.324Z,18.6
2017-01-14T14:38:40.631Z,18.58
2017-01-14T14:39:50.946Z,18.58
2017-01-14T14:41:01.238Z,18.55
2017-01-14T14:42:11.936Z,18.63
2017-01-14T14:43:22.636Z,18.57
2017-01-14T14:44:32.575Z,18.61
2017-01-14T14:45:43.270Z,18.6
2017-01-14T14:46:53.985Z,18.61
2017-01-14T14:48:04.290Z,18.6
2017-01-14T14:49:14.598Z,18.48
2017-01-14T14:50:24.492Z,18.49
2017-01-14T14:51:34.791Z,18.49
2017-01-14T14:52:45.132Z,18.52
2017-01-14T14:53:55.037Z,18.55
2017-01-14T14:55:05.725Z,18.6
2017-01-14T14:56:15.649Z,18.52
2017-01-14T14:57:25.949Z,18.53
2017-01-14T14:58:36.636Z,18.57
2017-01-14T14:59:46.537Z,18.58
2017-01-14T15:00:56.851Z,18.53
2017-01-14T15:02:07.548Z,18.53
2017-01-14T15:03:17.456Z,18.55
2017-01-14T15:04:27.367Z,18.6
2017-01-14T15:05:37.296Z,18.61
2017-01-14T15:06:47.229Z,18.58
2017-01-14T15:07:57.531Z,18.6